Time;durP1;ratioP1;P1;durP2;ratioP2;P2;SDS_P1;SDS_P2;PMS_P1;PMS_P2;Temp;Humidity;BMP_temperature;BMP_pressure;BME280_temperature;BME280_humidity;BME280_pressure;Samples;Min_cycle;Max_cycle;Signal;HPM_P1;HPM_P2
2022/03/10 00:00:36;;;;;;;;;;;;;;;5.04;33.93;102406.31;5053564;28;19948;-71
2022/03/10 00:03:02;;;;;;;;;;;;;;;5.06;34.42;102406.97;5054849;28;19927;-70
2022/03/10 00:05:27;;;;;;;;;;;;;;;5.11;33.77;102400.97;5054896;28;20415;-71
2022/03/10 00:07:52;;;;;;;;;;;;;;;4.99;33.74;102402.50;5055050;28;20242;-71
2022/03/10 00:10:18;;;;;;;;;;;;;;;4.91;34.16;102405.34;5054718;28;19932;-70
2022/03/10 00:12:46;;;;;;;;;;;;;;;4.83;34.23;102413.50;5054784;28;20302;-71
2022/03/10 00:15:12;;;;;;;;;;;;;;;4.80;33.81;102411.19;5054513;28;19925;-71
2022/03/10 00:17:37;;;;;;;;;;;;;;;4.75;34.51;102406.34;5054790;28;19917;-70
2022/03/10 00:20:03;;;;;;;;;;;;;;;4.74;34.07;102407.38;5055011;28;20304;-70
2022/03/10 00:22:28;;;;;;;;;;;;;;;4.71;34.25;102404.25;5054603;28;19942;-70
2022/03/10 00:24:53;;;;;;;;;;;;;;;4.74;34.48;102411.94;5054645;28;20270;-71
2022/03/10 00:27:19;;;;;;;;;;;;;;;4.65;34.74;102421.97;5054273;28;20054;-70
2022/03/10 00:29:44;;;;;;;;;;;;;;;4.67;34.14;102421.78;5054371;28;19920;-72
2022/03/10 00:32:09;;;;;;;;;;;;;;;4.95;34.65;102420.03;5054787;28;19917;-72
2022/03/10 00:34:35;;;;;;;;;;;;;;;4.81;36.43;102426.31;5054391;28;19924;-70
2022/03/10 00:37:01;;;;;;;;;;;;;;;4.71;35.57;102418.53;5054301;28;19940;-72
2022/03/10 00:39:26;;;;;;;;;;;;;;;4.58;36.47;102421.03;5054437;28;20022;-71
2022/03/10 00:41:51;;;;;;;;;;;;;;;4.57;35.81;102425.56;5054441;28;20300;-72
2022/03/10 00:44:17;;;;;;;;;;;;;;;4.56;35.43;102428.44;5054169;28;19913;-71
2022/03/10 00:46:42;;;;;;;;;;;;;;;4.51;35.74;102422.81;5054441;28;19917;-70
2022/03/10 00:49:07;;;;;;;;;;;;;;;4.43;35.58;102430.97;5053853;28;19943;-71
2022/03/10 00:51:32;;;;;;;;;;;;;;;4.47;35.54;102435.78;5053912;28;19917;-70
2022/03/10 00:53:58;;;;;;;;;;;;;;;4.43;35.89;102442.56;5054182;28;20008;-70
2022/03/10 00:56:23;;;;;;;;;;;;;;;4.34;34.44;102438.25;5053930;28;20355;-71
2022/03/10 00:58:48;;;;;;;;;;;;;;;4.36;34.94;102432.69;5054418;28;20014;-72
2022/03/10 01:01:13;;;;;;;;;;;;;;;4.29;34.72;102429.94;5053722;28;19947;-71
2022/03/10 01:03:39;;;;;;;;;;;;;;;4.39;34.82;102430.50;5053643;28;19966;-71
2022/03/10 01:06:04;;;;;;;;;;;;;;;4.41;34.90;102430.31;5053949;28;19966;-72
2022/03/10 01:08:29;;;;;;;;;;;;;;;4.44;35.17;102433.47;5053826;28;19913;-70
2022/03/10 01:10:57;;;;;;;;;;;;;;;4.37;34.06;102431.69;5053421;28;20151;-71
2022/03/10 01:13:22;;;;;;;;;;;;;;;4.39;34.95;102432.34;5053790;28;19956;-71
2022/03/10 01:15:48;;;;;;;;;;;;;;;4.48;34.10;102426.69;5053530;28;19936;-70
2022/03/10 01:18:14;;;;;;;;;;;;;;;4.54;33.42;102428.63;5053416;28;19928;-72
2022/03/10 01:20:39;;;;;;;;;;;;;;;4.56;33.24;102423.91;5035502;28;19924;-71
2022/03/10 01:23:04;;;;;;;;;;;;;;;4.80;32.78;102419.25;5054041;28;19917;-72
2022/03/10 01:25:30;;;;;;;;;;;;;;;4.89;32.11;102423.50;5053501;28;19927;-71
2022/03/10 01:27:55;;;;;;;;;;;;;;;4.96;31.88;102413.66;5053288;28;19970;-71
2022/03/10 01:30:20;;;;;;;;;;;;;;;5.01;31.86;102412.06;5051718;28;19974;-71
2022/03/10 01:32:45;;;;;;;;;;;;;;;5.10;31.44;102412.78;5053295;28;20095;-71
2022/03/10 01:35:11;;;;;;;;;;;;;;;5.06;31.33;102409.66;5053893;28;19916;-69
2022/03/10 01:37:37;;;;;;;;;;;;;;;5.16;31.03;102401.25;5053360;28;19920;-71
2022/03/10 01:40:05;;;;;;;;;;;;;;;5.20;30.82;102410.63;5053006;28;19947;-71
2022/03/10 01:42:30;;;;;;;;;;;;;;;5.14;30.69;102406.84;5053079;28;19935;-72
2022/03/10 01:44:56;;;;;;;;;;;;;;;5.02;30.73;102407.50;5053089;28;19925;-70
2022/03/10 01:47:21;;;;;;;;;;;;;;;5.04;30.63;102413.53;5052765;28;19937;-71
2022/03/10 01:49:46;;;;;;;;;;;;;;;5.18;30.53;102409.97;5053002;28;20317;-70
2022/03/10 01:52:12;;;;;;;;;;;;;;;5.35;30.23;102408.69;5052852;28;19921;-71
2022/03/10 01:54:39;;;;;;;;;;;;;;;5.26;30.41;102413.34;5053049;28;19921;-70
2022/03/10 01:57:05;;;;;;;;;;;;;;;5.50;29.90;102406.75;5047974;28;20285;-70
2022/03/10 01:59:30;;;;;;;;;;;;;;;5.44;29.94;102411.06;5037052;28;20009;-71
2022/03/10 02:01:55;;;;;;;;;;;;;;;5.48;29.54;102416.88;5053176;28;19928;-71
2022/03/10 02:04:21;;;;;;;;;;;;;;;5.52;29.58;102415.47;5052702;28;19925;-72
2022/03/10 02:06:46;;;;;;;;;;;;;;;5.53;29.64;102414.47;5034694;28;19955;-71
2022/03/10 02:11:55;;;;;;;;;;;;;;;5.50;29.41;102404.06;5052780;28;20348;-70
2022/03/10 02:17:22;;;;;;;;;;;;;;;5.65;29.19;102412.09;5052965;28;19920;-72
2022/03/10 02:19:51;;;;;;;;;;;;;;;5.61;29.23;102414.34;5052486;28;20391;-71
2022/03/10 02:22:17;;;;;;;;;;;;;;;5.70;28.93;102420.44;5052323;28;19925;-71
2022/03/10 02:24:43;;;;;;;;;;;;;;;5.66;28.84;102413.78;5052535;28;19967;-71
2022/03/10 02:27:12;;;;;;;;;;;;;;;5.62;29.16;102420.53;5052384;28;19994;-71
2022/03/10 02:29:38;;;;;;;;;;;;;;;5.46;29.26;102421.63;5052491;28;19935;-70
2022/03/10 02:32:03;;;;;;;;;;;;;;;5.26;29.45;102415.25;5052751;28;20015;-71
2022/03/10 02:34:29;;;;;;;;;;;;;;;5.47;29.33;102413.38;5052059;28;19917;-72
2022/03/10 02:36:54;;;;;;;;;;;;;;;5.37;29.30;102406.66;5052151;28;20465;-70
2022/03/10 02:39:19;;;;;;;;;;;;;;;5.58;29.17;102420.09;5052068;28;19924;-71
2022/03/10 02:41:44;;;;;;;;;;;;;;;5.52;28.84;102413.63;5052076;28;19987;-71
2022/03/10 02:44:09;;;;;;;;;;;;;;;5.66;29.02;102414.63;5051046;28;19921;-72
2022/03/10 02:46:35;;;;;;;;;;;;;;;5.66;29.00;102421.84;5051854;28;19921;-71
2022/03/10 02:49:00;;;;;;;;;;;;;;;5.65;28.92;102412.09;5051589;28;19960;-72
2022/03/10 02:51:25;;;;;;;;;;;;;;;5.60;28.65;102406.44;5052015;28;19960;-71
2022/03/10 02:53:50;;;;;;;;;;;;;;;5.57;28.94;102407.69;5052023;28;20067;-71
2022/03/10 02:56:16;;;;;;;;;;;;;;;5.52;28.85;102410.94;5052475;28;19995;-70
2022/03/10 02:58:41;;;;;;;;;;;;;;;5.50;28.96;102412.16;5052455;28;20000;-72
2022/03/10 03:01:06;;;;;;;;;;;;;;;5.44;29.02;102408.38;5051682;28;19932;-72
2022/03/10 03:03:33;;;;;;;;;;;;;;;5.33;29.47;102414.28;5051714;28;19920;-70
2022/03/10 03:05:59;;;;;;;;;;;;;;;5.26;29.34;102418.75;5051915;28;20412;-70
2022/03/10 03:08:24;;;;;;;;;;;;;;;5.15;29.60;102419.25;5051767;28;20023;-73
2022/03/10 03:10:49;;;;;;;;;;;;;;;5.27;29.22;102424.97;5052057;28;19951;-72
2022/03/10 03:13:14;;;;;;;;;;;;;;;5.11;29.46;102431.41;5051725;28;19921;-71
2022/03/10 03:15:39;;;;;;;;;;;;;;;5.10;29.56;102419.00;5051529;28;20296;-71
2022/03/10 03:18:05;;;;;;;;;;;;;;;5.07;30.29;102415.84;5051759;28;19927;-71
2022/03/10 03:20:30;;;;;;;;;;;;;;;5.10;30.03;102421.69;5051625;28;20012;-72
2022/03/10 03:22:55;;;;;;;;;;;;;;;5.05;29.88;102418.72;5052037;28;19960;-72
2022/03/10 03:25:21;;;;;;;;;;;;;;;5.15;29.38;102423.78;5051529;28;20324;-70
2022/03/10 03:27:46;;;;;;;;;;;;;;;5.16;29.65;102428.97;5055537;28;20003;-70
2022/03/10 03:30:12;;;;;;;;;;;;;;;5.17;29.55;102429.81;5055532;28;19921;-71
2022/03/10 03:32:37;;;;;;;;;;;;;;;5.04;29.98;102427.00;5055660;28;19923;-70
2022/03/10 03:35:02;;;;;;;;;;;;;;;4.89;29.99;102424.31;5056069;28;19945;-71
2022/03/10 03:37:27;;;;;;;;;;;;;;;5.13;29.66;102425.84;5055446;28;19929;-71
2022/03/10 03:39:53;;;;;;;;;;;;;;;5.13;29.67;102424.00;5055491;28;20339;-71
2022/03/10 03:42:18;;;;;;;;;;;;;;;4.87;29.76;102428.25;5055376;28;19936;-72
2022/03/10 03:44:44;;;;;;;;;;;;;;;4.87;30.07;102439.81;5055578;28;19917;-71
2022/03/10 03:47:09;;;;;;;;;;;;;;;5.08;29.62;102437.19;5055535;28;19999;-71
2022/03/10 03:49:34;;;;;;;;;;;;;;;5.14;29.71;102440.97;5054913;28;19921;-71
2022/03/10 03:51:59;;;;;;;;;;;;;;;5.15;29.63;102435.41;5055686;28;19920;-71
2022/03/10 03:54:25;;;;;;;;;;;;;;;4.90;30.28;102442.13;5055123;28;20403;-72
2022/03/10 03:56:50;;;;;;;;;;;;;;;4.96;30.07;102441.38;5054704;28;19927;-72
2022/03/10 03:59:15;;;;;;;;;;;;;;;4.97;29.73;102445.72;5055163;28;19944;-71
2022/03/10 04:01:40;;;;;;;;;;;;;;;5.06;29.56;102452.69;5055319;28;19960;-71
2022/03/10 04:04:06;;;;;;;;;;;;;;;5.05;29.62;102453.69;5054903;28;19920;-70
2022/03/10 04:06:31;;;;;;;;;;;;;;;5.05;29.67;102461.75;5055006;28;19943;-71
2022/03/10 04:08:56;;;;;;;;;;;;;;;5.10;29.64;102461.22;5054884;28;19975;-72
2022/03/10 04:11:21;;;;;;;;;;;;;;;5.07;29.38;102454.34;5054540;28;19920;-71
2022/03/10 04:13:47;;;;;;;;;;;;;;;5.10;29.67;102467.44;5055277;28;19913;-71
2022/03/10 04:16:12;;;;;;;;;;;;;;;5.08;29.34;102469.47;5054640;28;19924;-72
2022/03/10 04:18:37;;;;;;;;;;;;;;;5.05;29.75;102466.31;5054223;28;19952;-71
2022/03/10 04:21:02;;;;;;;;;;;;;;;4.99;30.07;102469.75;5054446;28;19917;-70
2022/03/10 04:23:28;;;;;;;;;;;;;;;4.98;29.76;102460.88;5054648;28;20340;-70
2022/03/10 04:25:53;;;;;;;;;;;;;;;4.96;29.68;102462.91;5053429;28;19913;-72
2022/03/10 04:28:19;;;;;;;;;;;;;;;4.46;30.82;102458.28;5053638;28;20276;-71
2022/03/10 04:30:44;;;;;;;;;;;;;;;4.83;30.06;102464.59;5053600;28;19921;-70
2022/03/10 04:33:10;;;;;;;;;;;;;;;4.90;29.73;102462.81;5051569;28;19931;-71
2022/03/10 04:35:35;;;;;;;;;;;;;;;5.04;29.52;102451.19;5053499;28;19920;-71
2022/03/10 04:38:01;;;;;;;;;;;;;;;4.58;30.45;102461.34;5053260;28;19913;-70
2022/03/10 04:40:27;;;;;;;;;;;;;;;4.58;30.77;102456.81;5053450;28;19928;-71
2022/03/10 04:42:53;;;;;;;;;;;;;;;4.74;30.54;102454.94;5053479;28;20402;-71
2022/03/10 04:45:18;;;;;;;;;;;;;;;4.91;30.02;102459.94;5053505;28;20023;-72
2022/03/10 04:47:44;;;;;;;;;;;;;;;4.88;29.93;102467.53;5053204;28;19917;-70
2022/03/10 04:50:10;;;;;;;;;;;;;;;5.16;29.73;102465.84;5054488;28;20392;-71
2022/03/10 04:52:36;;;;;;;;;;;;;;;4.77;30.19;102468.84;5053785;28;19943;-71
2022/03/10 04:55:02;;;;;;;;;;;;;;;5.01;29.80;102465.84;5054222;28;19916;-71
2022/03/10 04:57:28;;;;;;;;;;;;;;;4.96;30.11;102476.34;5052423;28;19921;-71
2022/03/10 04:59:53;;;;;;;;;;;;;;;4.63;30.22;102468.88;5054010;28;19920;-72
2022/03/10 05:02:18;;;;;;;;;;;;;;;4.35;30.78;102466.81;5051209;28;20415;-72
2022/03/10 05:04:44;;;;;;;;;;;;;;;4.65;30.44;102464.13;5054235;28;20000;-71
2022/03/10 05:07:09;;;;;;;;;;;;;;;4.30;31.03;102466.53;5053619;28;19935;-71
2022/03/10 05:09:35;;;;;;;;;;;;;;;4.37;30.98;102462.09;5053299;28;19983;-71
2022/03/10 05:12:00;;;;;;;;;;;;;;;4.69;30.39;102468.13;5053605;28;19921;-70
2022/03/10 05:14:26;;;;;;;;;;;;;;;4.86;30.04;102458.84;5053354;28;19916;-71
2022/03/10 05:16:51;;;;;;;;;;;;;;;4.74;30.37;102468.38;5053470;28;19913;-71
2022/03/10 05:19:16;;;;;;;;;;;;;;;4.34;30.57;102475.88;5035379;28;19921;-70
2022/03/10 05:21:42;;;;;;;;;;;;;;;4.63;30.24;102473.22;5053053;28;20396;-71
2022/03/10 05:24:07;;;;;;;;;;;;;;;4.60;30.85;102470.06;5053539;28;19921;-70
2022/03/10 05:26:32;;;;;;;;;;;;;;;4.21;31.12;102469.47;5053624;28;19960;-70
2022/03/10 05:28:58;;;;;;;;;;;;;;;4.31;30.97;102472.75;5054123;28;19947;-70
2022/03/10 05:31:23;;;;;;;;;;;;;;;4.68;30.61;102474.50;5053265;28;19928;-71
2022/03/10 05:33:49;;;;;;;;;;;;;;;4.59;30.18;102473.78;5053466;28;19940;-71
2022/03/10 05:36:14;;;;;;;;;;;;;;;4.47;30.97;102476.09;5033354;28;19936;-71
2022/03/10 05:38:39;;;;;;;;;;;;;;;4.50;30.23;102481.09;5033360;28;19925;-71
2022/03/10 05:41:05;;;;;;;;;;;;;;;4.63;30.22;102470.53;5033653;28;19924;-71
2022/03/10 05:43:31;;;;;;;;;;;;;;;5.10;29.73;102471.97;5033244;28;19924;-70
2022/03/10 05:45:56;;;;;;;;;;;;;;;5.12;29.43;102475.31;5049069;28;20019;-71
2022/03/10 05:48:21;;;;;;;;;;;;;;;4.46;30.50;102481.63;5052812;28;20526;-71
2022/03/10 05:50:47;;;;;;;;;;;;;;;4.96;29.70;102479.03;5052840;28;19925;-71
2022/03/10 05:53:12;;;;;;;;;;;;;;;5.22;29.27;102481.22;5053240;28;19999;-71
2022/03/10 05:55:37;;;;;;;;;;;;;;;5.18;29.20;102478.06;5052510;28;20213;-70
2022/03/10 05:58:04;;;;;;;;;;;;;;;4.94;29.43;102482.94;5052502;28;19920;-71
2022/03/10 06:00:29;;;;;;;;;;;;;;;5.14;29.36;102486.72;5052466;28;19991;-72
2022/03/10 06:02:54;;;;;;;;;;;;;;;5.10;29.33;102486.25;5052587;28;20102;-70
2022/03/10 06:05:20;;;;;;;;;;;;;;;5.12;29.40;102486.91;5052816;28;19924;-71
2022/03/10 06:07:45;;;;;;;;;;;;;;;5.09;29.29;102489.13;5053126;28;19909;-71
2022/03/10 06:10:10;;;;;;;;;;;;;;;5.01;29.40;102495.44;5052343;28;19925;-71
2022/03/10 06:12:36;;;;;;;;;;;;;;;4.97;29.75;102501.38;5052445;28;20026;-71
2022/03/10 06:15:04;;;;;;;;;;;;;;;4.91;29.99;102505.66;5052568;28;19927;-70
2022/03/10 06:17:29;;;;;;;;;;;;;;;4.87;29.86;102504.34;5052096;28;20372;-70
2022/03/10 06:19:55;;;;;;;;;;;;;;;4.71;30.08;102504.56;5052342;28;20055;-72
2022/03/10 06:22:21;;;;;;;;;;;;;;;4.73;30.29;102502.50;5050244;28;19960;-72
2022/03/10 06:24:47;;;;;;;;;;;;;;;4.73;30.07;102507.88;5050756;28;19917;-71
2022/03/10 06:27:13;;;;;;;;;;;;;;;4.77;30.83;102508.38;5050722;28;19927;-73
2022/03/10 06:29:41;;;;;;;;;;;;;;;4.70;30.56;102502.88;5050520;28;19917;-72
2022/03/10 06:32:07;;;;;;;;;;;;;;;4.72;30.55;102502.69;5050012;28;20369;-72
2022/03/10 06:34:32;;;;;;;;;;;;;;;4.74;30.26;102506.88;5052053;28;19971;-72
2022/03/10 06:36:57;;;;;;;;;;;;;;;4.65;30.68;102505.31;5052016;28;20012;-71
2022/03/10 06:39:23;;;;;;;;;;;;;;;4.66;30.58;102500.75;5051879;28;19921;-71
2022/03/10 06:41:48;;;;;;;;;;;;;;;4.68;30.64;102510.31;5051449;28;19931;-71
2022/03/10 06:44:13;;;;;;;;;;;;;;;4.63;30.83;102509.19;5051927;28;19917;-71
2022/03/10 06:46:39;;;;;;;;;;;;;;;4.74;30.52;102506.03;5052273;28;19974;-70
2022/03/10 06:49:04;;;;;;;;;;;;;;;4.73;30.47;102520.50;5051092;28;20357;-72
2022/03/10 06:51:30;;;;;;;;;;;;;;;4.88;30.47;102516.78;5042144;28;20369;-72
2022/03/10 06:53:55;;;;;;;;;;;;;;;4.83;30.54;102526.44;5049151;28;19921;-72
2022/03/10 06:56:20;;;;;;;;;;;;;;;4.92;30.24;102523.47;5051018;28;19917;-72
2022/03/10 06:58:45;;;;;;;;;;;;;;;4.88;30.26;102524.88;5050606;28;19970;-71
2022/03/10 07:01:11;;;;;;;;;;;;;;;4.93;30.90;102522.44;5049326;28;20393;-71
2022/03/10 07:03:36;;;;;;;;;;;;;;;4.94;30.75;102526.81;5051386;28;19921;-70
2022/03/10 07:06:03;;;;;;;;;;;;;;;5.10;30.21;102523.94;5051686;28;19967;-71
2022/03/10 07:08:28;;;;;;;;;;;;;;;5.08;30.54;102527.81;5051718;28;20403;-71
2022/03/10 07:10:53;;;;;;;;;;;;;;;5.12;30.44;102526.44;5051537;28;19921;-72
2022/03/10 07:13:19;;;;;;;;;;;;;;;5.24;30.27;102527.63;5051529;28;20365;-72
2022/03/10 07:15:44;;;;;;;;;;;;;;;5.35;30.00;102530.66;5051439;28;20385;-72
2022/03/10 07:18:09;;;;;;;;;;;;;;;5.29;30.35;102526.03;5051802;28;19928;-72
2022/03/10 07:20:34;;;;;;;;;;;;;;;5.38;30.28;102532.94;5046700;28;19921;-70
2022/03/10 07:23:00;;;;;;;;;;;;;;;4.97;30.58;102529.13;5052833;28;20284;-71
2022/03/10 07:25:25;;;;;;;;;;;;;;;5.38;30.58;102532.94;5055258;28;19921;-72
2022/03/10 07:27:50;;;;;;;;;;;;;;;5.36;30.40;102534.19;5053090;28;20351;-71
2022/03/10 07:30:16;;;;;;;;;;;;;;;5.37;30.29;102530.47;5049036;28;19921;-71
2022/03/10 07:32:41;;;;;;;;;;;;;;;5.88;29.52;102526.69;5048243;28;20496;-72
2022/03/10 07:35:06;;;;;;;;;;;;;;;6.01;29.36;102529.50;5053989;28;19917;-69
2022/03/10 07:37:32;;;;;;;;;;;;;;;5.70;30.00;102526.31;5045967;28;19929;-72
2022/03/10 07:39:57;;;;;;;;;;;;;;;5.99;29.56;102520.78;5049257;28;19921;-72
2022/03/10 07:42:22;;;;;;;;;;;;;;;6.33;29.26;102522.72;5050091;28;19974;-72
2022/03/10 07:44:47;;;;;;;;;;;;;;;5.63;29.66;102527.22;5045614;28;19928;-72
2022/03/10 07:47:13;;;;;;;;;;;;;;;5.73;29.90;102530.47;5052832;28;20320;-70
2022/03/10 07:49:38;;;;;;;;;;;;;;;5.91;29.89;102526.31;5049094;28;19925;-72
2022/03/10 07:52:04;;;;;;;;;;;;;;;6.25;29.34;102525.56;5051564;28;19920;-73
2022/03/10 07:54:29;;;;;;;;;;;;;;;5.85;29.81;102527.06;5043411;28;20380;-70
2022/03/10 07:56:54;;;;;;;;;;;;;;;5.99;29.65;102515.41;5045020;28;19921;-72
2022/03/10 07:59:20;;;;;;;;;;;;;;;6.50;29.26;102516.00;5052632;28;19958;-72
2022/03/10 08:01:45;;;;;;;;;;;;;;;6.29;29.33;102510.69;5045318;28;19921;-74
2022/03/10 08:04:10;;;;;;;;;;;;;;;6.73;29.00;102513.06;5041772;28;19931;-72
2022/03/10 08:06:36;;;;;;;;;;;;;;;6.73;29.07;102516.59;5050522;28;20369;-72
2022/03/10 08:09:06;;;;;;;;;;;;;;;6.55;29.47;102529.75;5051005;28;19928;-72
2022/03/10 08:11:32;;;;;;;;;;;;;;;7.39;28.22;102525.00;5040110;28;19931;-71
2022/03/10 08:13:57;;;;;;;;;;;;;;;7.03;28.97;102518.03;5034311;28;20064;-72
2022/03/10 08:16:22;;;;;;;;;;;;;;;6.88;29.14;102513.75;5022047;28;19996;-71
2022/03/10 08:18:49;;;;;;;;;;;;;;;7.25;28.65;102507.94;5037032;28;19921;-73
2022/03/10 08:21:15;;;;;;;;;;;;;;;7.13;29.21;102505.00;5037050;28;19921;-72
2022/03/10 08:23:40;;;;;;;;;;;;;;;7.52;28.50;102503.47;5045770;28;20087;-71
2022/03/10 08:26:05;;;;;;;;;;;;;;;7.82;28.28;102504.75;5049715;28;19920;-72
2022/03/10 08:28:32;;;;;;;;;;;;;;;7.73;28.39;102503.31;5046055;28;19953;-71
2022/03/10 08:30:57;;;;;;;;;;;;;;;7.56;28.89;102499.34;5042406;28;19925;-72
2022/03/10 08:33:22;;;;;;;;;;;;;;;7.52;28.90;102493.47;5042637;28;20411;-72
2022/03/10 08:35:47;;;;;;;;;;;;;;;8.38;27.83;102494.41;5040877;28;19933;-72
2022/03/10 08:38:13;;;;;;;;;;;;;;;8.50;27.48;102501.69;5045720;28;19916;-71
2022/03/10 08:40:38;;;;;;;;;;;;;;;7.71;29.19;102495.41;5047575;28;19987;-72
2022/03/10 08:43:05;;;;;;;;;;;;;;;8.46;28.51;102486.91;5031321;28;20020;-72
2022/03/10 08:45:30;;;;;;;;;;;;;;;8.60;28.37;102493.13;5049551;28;19927;-71
2022/03/10 08:47:56;;;;;;;;;;;;;;;8.82;28.05;102500.78;5046448;28;20312;-71
2022/03/10 08:50:22;;;;;;;;;;;;;;;8.34;28.72;102501.28;5045448;28;19917;-72
2022/03/10 08:52:47;;;;;;;;;;;;;;;8.86;28.09;102502.00;5040536;28;19913;-72
2022/03/10 08:55:13;;;;;;;;;;;;;;;9.02;27.94;102498.00;5032061;28;19925;-73
2022/03/10 08:57:39;;;;;;;;;;;;;;;9.21;27.59;102491.69;5032217;28;19925;-71
2022/03/10 09:00:05;;;;;;;;;;;;;;;9.33;27.82;102489.94;5031414;28;20361;-71
2022/03/10 09:02:30;;;;;;;;;;;;;;;9.44;27.41;102492.00;5016874;28;20016;-72
2022/03/10 09:04:55;;;;;;;;;;;;;;;9.56;27.81;102487.56;5034152;28;20011;-70
2022/03/10 09:07:21;;;;;;;;;;;;;;;9.08;27.93;102482.75;5035356;28;19921;-71
2022/03/10 09:09:46;;;;;;;;;;;;;;;9.22;27.33;102479.78;5035462;28;19928;-72
2022/03/10 09:12:12;;;;;;;;;;;;;;;9.21;27.66;102488.97;5050702;28;19931;-72
2022/03/10 09:14:37;;;;;;;;;;;;;;;9.26;27.20;102481.03;5067392;28;19924;-71
2022/03/10 09:17:03;;;;;;;;;;;;;;;9.38;27.07;102483.88;5070961;28;19928;-71
2022/03/10 09:19:28;;;;;;;;;;;;;;;9.11;27.22;102480.47;5053840;28;20377;-70
2022/03/10 09:21:53;;;;;;;;;;;;;;;9.84;26.71;102471.72;5033019;28;19925;-72
2022/03/10 09:24:18;;;;;;;;;;;;;;;10.01;26.08;102476.59;5050152;28;20027;-72
2022/03/10 09:26:44;;;;;;;;;;;;;;;9.91;26.44;102474.38;5044426;28;19921;-72
2022/03/10 09:29:09;;;;;;;;;;;;;;;10.47;25.67;102477.84;5049700;28;20520;-71
2022/03/10 09:31:34;;;;;;;;;;;;;;;9.98;26.09;102472.44;5041879;28;19972;-72
2022/03/10 09:34:00;;;;;;;;;;;;;;;10.25;25.59;102473.06;5047211;28;20015;-73
2022/03/10 09:36:28;;;;;;;;;;;;;;;10.00;26.17;102469.53;5043060;28;19995;-71
2022/03/10 09:38:53;;;;;;;;;;;;;;;10.58;25.75;102473.59;5046188;28;19971;-71
2022/03/10 09:41:19;;;;;;;;;;;;;;;9.97;26.44;102459.09;5041960;28;19917;-72
2022/03/10 09:43:45;;;;;;;;;;;;;;;10.83;25.17;102463.47;5054644;28;20049;-70
2022/03/10 09:46:11;;;;;;;;;;;;;;;10.21;25.60;102469.97;5053009;28;19932;-71
2022/03/10 09:48:36;;;;;;;;;;;;;;;10.68;25.39;102465.75;5050552;28;19924;-70
2022/03/10 09:51:02;;;;;;;;;;;;;;;11.20;24.85;102464.25;5050446;28;20294;-69
2022/03/10 09:53:30;;;;;;;;;;;;;;;10.90;26.29;102460.69;5055306;28;19917;-71
2022/03/10 09:55:55;;;;;;;;;;;;;;;10.86;25.65;102454.91;5052456;28;20401;-71
2022/03/10 09:58:21;;;;;;;;;;;;;;;11.49;25.49;102456.16;5049751;28;20084;-70
2022/03/10 10:00:46;;;;;;;;;;;;;;;11.77;24.95;102449.25;5050352;28;19990;-73
2022/03/10 10:03:11;;;;;;;;;;;;;;;11.17;25.52;102452.00;5050087;28;19924;-71
2022/03/10 10:05:38;;;;;;;;;;;;;;;11.23;25.63;102451.06;5049802;28;19925;-70
2022/03/10 10:08:17;;;;;;;;;;;;;;;11.88;24.57;102451.16;5049380;28;19917;-71
2022/03/10 10:10:46;;;;;;;;;;;;;;;11.65;24.49;102451.13;5049469;28;20027;-71
2022/03/10 10:13:23;;;;;;;;;;;;;;;11.75;24.78;102445.94;5050831;28;19917;-70
2022/03/10 10:15:53;;;;;;;;;;;;;;;11.54;25.32;102452.75;5045921;28;19935;-71
2022/03/10 10:18:19;;;;;;;;;;;;;;;11.14;25.62;102444.28;5051049;28;19921;-71
2022/03/10 10:20:46;;;;;;;;;;;;;;;11.90;24.65;102443.59;5050000;28;19929;-71
2022/03/10 10:23:15;;;;;;;;;;;;;;;11.47;25.39;102441.13;5051185;28;19921;-70
2022/03/10 10:25:47;;;;;;;;;;;;;;;11.29;25.61;102438.44;5050718;28;19928;-70
2022/03/10 10:28:27;;;;;;;;;;;;;;;12.05;24.52;102436.63;5048990;28;20433;-72
2022/03/10 10:30:53;;;;;;;;;;;;;;;12.05;24.85;102447.53;5048467;28;19978;-70
2022/03/10 10:33:19;;;;;;;;;;;;;;;12.57;23.98;102437.59;5049596;28;20360;-70
2022/03/10 10:35:45;;;;;;;;;;;;;;;12.12;24.32;102431.91;5048826;28;20003;-71
2022/03/10 10:38:12;;;;;;;;;;;;;;;12.42;24.45;102435.34;5049079;28;19984;-72
2022/03/10 10:40:38;;;;;;;;;;;;;;;12.52;24.55;102432.03;5048785;28;19921;-70
2022/03/10 10:43:06;;;;;;;;;;;;;;;13.12;23.84;102430.56;5049433;28;19935;-71
2022/03/10 10:45:33;;;;;;;;;;;;;;;12.90;24.21;102426.03;5055326;28;19921;-70
2022/03/10 10:48:02;;;;;;;;;;;;;;;12.52;24.60;102428.47;5050301;28;19921;-71
2022/03/10 10:50:28;;;;;;;;;;;;;;;13.10;23.95;102427.25;5046799;28;19917;-72
2022/03/10 10:52:53;;;;;;;;;;;;;;;13.30;24.01;102421.38;5050372;28;19923;-70
2022/03/10 10:55:19;;;;;;;;;;;;;;;13.51;23.83;102426.16;5050370;28;20331;-73
2022/03/10 10:57:45;;;;;;;;;;;;;;;12.97;23.76;102426.69;5064484;28;19924;-72
2022/03/10 11:00:11;;;;;;;;;;;;;;;13.51;23.46;102422.59;5064679;28;20008;-70
2022/03/10 11:02:41;;;;;;;;;;;;;;;13.88;23.26;102421.88;5065244;28;19920;-71
2022/03/10 11:05:08;;;;;;;;;;;;;;;14.02;23.02;102414.16;5052106;28;19919;-71
2022/03/10 11:07:34;;;;;;;;;;;;;;;13.32;24.02;102415.69;5050704;28;19921;-70
2022/03/10 11:09:59;;;;;;;;;;;;;;;13.43;23.05;102412.06;5049916;28;19931;-71
2022/03/10 11:12:25;;;;;;;;;;;;;;;13.76;22.80;102404.75;5069613;28;20357;-71
2022/03/10 11:14:50;;;;;;;;;;;;;;;12.82;23.54;102415.50;5069667;28;20004;-71
2022/03/10 11:17:17;;;;;;;;;;;;;;;13.71;22.79;102404.69;5052454;28;20379;-70
2022/03/10 11:19:44;;;;;;;;;;;;;;;14.19;22.55;102408.72;5048695;28;19967;-70
2022/03/10 11:22:09;;;;;;;;;;;;;;;14.52;21.58;102405.94;5048861;28;19924;-71
2022/03/10 11:24:43;;;;;;;;;;;;;;;14.31;22.40;102402.06;5049354;28;19952;-71
2022/03/10 11:27:12;;;;;;;;;;;;;;;14.07;22.59;102401.41;5049230;28;19951;-71
2022/03/10 11:29:38;;;;;;;;;;;;;;;14.71;22.03;102390.88;5042603;28;19963;-70
2022/03/10 11:32:04;;;;;;;;;;;;;;;14.17;22.86;102389.03;5044424;28;19923;-71
2022/03/10 11:34:48;;;;;;;;;;;;;;;14.75;21.89;102386.53;5048256;28;20011;-71
2022/03/10 11:37:33;;;;;;;;;;;;;;;15.08;21.94;102385.56;5070129;28;19944;-71
2022/03/10 11:39:58;;;;;;;;;;;;;;;14.89;21.54;102379.59;5058893;28;19924;-71
2022/03/10 11:42:28;;;;;;;;;;;;;;;14.63;22.76;102378.47;5066505;28;20331;-72
2022/03/10 11:45:11;;;;;;;;;;;;;;;14.45;22.75;102367.88;5067697;28;20364;-72
2022/03/10 11:47:38;;;;;;;;;;;;;;;14.48;22.11;102367.34;5056182;28;19928;-73
2022/03/10 11:50:24;;;;;;;;;;;;;;;14.49;22.04;102365.44;5050512;28;19920;-70
2022/03/10 11:52:56;;;;;;;;;;;;;;;14.98;21.78;102359.75;5065326;28;19920;-71
2022/03/10 11:55:22;;;;;;;;;;;;;;;15.36;21.62;102361.53;5055188;28;19970;-72
2022/03/10 11:57:53;;;;;;;;;;;;;;;16.19;21.14;102360.78;5053364;28;19925;-72
2022/03/10 12:00:22;;;;;;;;;;;;;;;15.69;21.04;102358.53;5052586;28;20011;-73
2022/03/10 12:02:56;;;;;;;;;;;;;;;15.37;21.46;102356.88;5052212;28;19933;-71
2022/03/10 12:05:21;;;;;;;;;;;;;;;14.74;21.76;102347.44;5052824;28;19923;-73
2022/03/10 12:07:50;;;;;;;;;;;;;;;15.65;21.50;102345.63;5054178;28;20420;-71
2022/03/10 12:10:16;;;;;;;;;;;;;;;15.70;21.32;102351.94;5051238;28;20360;-73
2022/03/10 12:12:42;;;;;;;;;;;;;;;15.45;21.29;102349.03;5053363;28;20020;-73
2022/03/10 12:15:30;;;;;;;;;;;;;;;15.58;21.06;102340.34;5052957;28;20413;-72
2022/03/10 12:17:55;;;;;;;;;;;;;;;16.13;20.37;102337.19;5051230;28;19927;-72
2022/03/10 12:20:21;;;;;;;;;;;;;;;15.88;20.70;102337.06;5051069;28;19920;-72
2022/03/10 12:23:10;;;;;;;;;;;;;;;15.89;20.55;102332.41;5052803;28;20001;-73
2022/03/10 12:25:42;;;;;;;;;;;;;;;16.18;20.52;102329.03;4992475;28;19921;-72
2022/03/10 12:28:09;;;;;;;;;;;;;;;16.00;20.58;102324.00;5011903;28;20016;-71
2022/03/10 12:30:39;;;;;;;;;;;;;;;16.63;20.52;102326.50;5012267;28;19921;-72
2022/03/10 12:33:04;;;;;;;;;;;;;;;16.57;19.83;102330.31;5009599;28;19926;-71
2022/03/10 12:35:31;;;;;;;;;;;;;;;16.07;20.36;102321.03;5005846;28;20037;-72
2022/03/10 12:37:56;;;;;;;;;;;;;;;17.17;19.74;102317.84;5006706;28;19952;-71
2022/03/10 12:40:27;;;;;;;;;;;;;;;16.38;19.87;102318.16;5000178;28;20393;-71
2022/03/10 12:43:02;;;;;;;;;;;;;;;16.92;20.07;102313.13;5005700;28;19988;-73